Flight Track Log - Related Links

Times and Time Zones

All times are in EDT time to prevent confusion due to time zone crossing. See the KFS86 flight status page for this flight to view local times or setup timezone preferences in your user account.

Time Position Orientation Groundspeed Altitude Reporting Facility
EDT Latitude Longitude Course Direction KTS MPH feet Rate Location/Type
Fri 04:57:23 PM 34.4247 -119.8750 258° West 193 222 1,200  Level Los Angeles Center
Fri 04:58:19 PM 34.4139 -119.9361 258° West 209 241 3,200 2,136 Climbing Los Angeles Center
Fri 04:59:21 PM 34.4033 -120.0139 261° West 225 259 5,400 2,032 Climbing Los Angeles Center
Fri 05:00:23 PM 34.3881 -120.0992 258° West 263 303 7,400 2,226 Climbing Los Angeles Center
Fri 05:01:25 PM 34.4453 -120.1725 313° West 289 333 10,000 2,274 Climbing Los Angeles Center
Fri 05:02:27 PM 34.5228 -120.1872 351° North 279 321 12,100 1,694 Climbing Los Angeles Center
Fri 05:03:29 PM 34.6089 -120.2061 350° North 304 350 13,500 1,742 Climbing Los Angeles Center
Fri 05:04:31 PM 34.6994 -120.2275 349° North 331 381 15,700 2,032 Climbing Los Angeles Center
Fri 05:05:33 PM 34.7889 -120.2475 350° North 331 381 17,700 2,081 Climbing Los Angeles Center
Fri 05:06:35 PM 34.8989 -120.2694 351° North 337 388 20,000 1,872 Climbing Los Angeles Center
Fri 05:07:38 PM 34.9925 -120.2906 350° North 343 395 21,600 1,344 Climbing Los Angeles Center
Fri 05:08:40 PM 35.0906 -120.3119 350° North 356 410 22,800 1,306 Climbing Los Angeles Center
Fri 05:09:42 PM 35.1914 -120.3336 350° North 368 423 24,300 1,452 Climbing Los Angeles Center
Fri 05:10:44 PM 35.2928 -120.3561 350° North 370 426 25,800 1,403 Climbing Los Angeles Center
Fri 05:11:46 PM 35.4167 -120.3828 350° North 378 435 27,200 1,016 Climbing Los Angeles Center
Fri 05:12:48 PM 35.5233 -120.4086 349° North 389 448 27,900 823 Climbing Los Angeles Center
Fri 05:13:50 PM 35.6339 -120.4344 349° North 402 463 28,900 1,016 Climbing Los Angeles Center
Fri 05:14:52 PM 35.7389 -120.4575 350° North 408 470 30,000 1,234 Climbing Los Angeles Center
Fri 05:15:37 PM 35.8283 -120.4756 351° North 409 471 31,100 1,121 Climbing Oakland Center
Fri 05:16:39 PM 35.9414 -120.4994 350° North 411 473 32,000 484 Climbing Oakland Center
Fri 05:17:41 PM 36.0850 -120.5167 354° North 435 501 32,100 194 Climbing Oakland Center
Fri 05:18:43 PM 36.2106 -120.4944 North 451 519 32,400 537 Climbing Oakland Center
Fri 05:19:44 PM 36.3336 -120.4700 North 449 517 33,200 732 Climbing Oakland Center
Fri 05:20:46 PM 36.4542 -120.4856 354° North 437 503 33,900 629 Climbing Oakland Center
Fri 05:21:48 PM 36.5758 -120.5086 351° North 440 506 34,500 634 Climbing Oakland Center
Fri 05:22:49 PM 36.6967 -120.5336 351° North 441 507 35,200 634 Climbing Oakland Center
Fri 05:23:51 PM 36.8228 -120.5603 350° North 439 505 35,800 387 Climbing Oakland Center
Fri 05:24:53 PM 36.9450 -120.5811 352° North 442 509 36,000 98 Climbing Oakland Center
Fri 05:25:54 PM 37.0708 -120.6097 350° North 456 525 36,000  Level Oakland Center
Fri 05:26:56 PM 37.2244 -120.6367 352° North 463 533 36,000  Level Oakland Center
Fri 05:27:58 PM 37.3522 -120.6656 350° North 465 535 36,000 244 Level Oakland Center
Fri 05:28:59 PM 37.4803 -120.6878 352° North 465 535 36,500 683 Climbing Oakland Center
Fri 05:30:01 PM 37.6031 -120.7167 349° North 452 520 37,400 677 Climbing Oakland Center
Fri 05:31:03 PM 37.7267 -120.7367 353° North 448 516 37,900 244 Climbing Oakland Center
Fri 05:32:04 PM 37.8478 -120.7678 349° North 445 512 37,900 98 Level Oakland Center
Fri 05:33:06 PM 37.9742 -120.7889 352° North 456 525 38,100 48 Climbing Oakland Center
Fri 05:34:08 PM 38.1244 -120.8211 350° North 458 527 38,000 -48 Descending Oakland Center
Fri 05:35:10 PM 38.2503 -120.8461 351° North 459 528 38,000  Level Oakland Center
Fri 05:36:11 PM 38.3753 -120.8736 350° North 459 528 38,000  Level Oakland Center
Fri 05:37:13 PM 38.5003 -120.8981 351° North 459 528 38,000  Level Oakland Center
Fri 05:38:15 PM 38.6250 -120.9244 351° North 460 529 38,000  Level Oakland Center
Fri 05:39:16 PM 38.7503 -120.9483 352° North 460 529 38,000  Level Oakland Center
Fri 05:40:18 PM 38.9006 -120.9833 350° North 461 531 38,000  Level Oakland Center
Fri 05:41:20 PM 39.0264 -121.0075 352° North 460 529 38,000 49 Level Oakland Center
Fri 05:42:21 PM 39.1522 -121.0350 350° North 460 529 38,100  Climbing Oakland Center
Fri 05:43:23 PM 39.2783 -121.0606 351° North 460 529 38,000 -48 Descending Oakland Center
Fri 05:44:25 PM 39.4056 -121.0878 351° North 463 533 38,000  Level Oakland Center
Fri 05:45:26 PM 39.5308 -121.1164 350° North 459 528 38,000  Level Oakland Center
Fri 05:46:28 PM 39.6578 -121.1400 352° North 460 529 38,000  Level Oakland Center
Fri 05:47:30 PM 39.7925 -121.1736 349° North 458 527 38,000  Level Oakland Center
Fri 05:48:31 PM 39.9186 -121.1969 352° North 460 529 38,000  Level Oakland Center
Fri 05:49:33 PM 40.0683 -121.2336 349° North 459 528 38,000  Level Oakland Center
Fri 05:50:35 PM 40.1947 -121.2569 352° North 460 529 38,000  Level Oakland Center
Fri 05:51:36 PM 40.3189 -121.2864 350° North 454 522 38,000  Level Oakland Center
Fri 05:52:38 PM 40.4444 -121.3153 350° North 459 528 38,000  Level Oakland Center
Fri 05:53:40 PM 40.5728 -121.3417 351° North 459 528 38,000  Level Oakland Center
Fri 05:54:41 PM 40.6978 -121.3728 349° North 458 527 38,000  Level Oakland Center
Fri 05:55:43 PM 40.8447 -121.4014 352° North 459 528 38,000  Level Oakland Center
Fri 05:56:45 PM 40.9675 -121.4331 349° North 451 519 38,000  Level Oakland Center
Fri 05:57:46 PM 41.0964 -121.4597 351° North 452 520 38,000  Level Oakland Center
Fri 05:58:48 PM 41.2175 -121.4889 350° North 442 509 38,000  Level Oakland Center
Fri 05:59:50 PM 41.3425 -121.5144 351° North 453 521 38,000  Level Oakland Center
Fri 06:00:37 PM 41.4414 -121.5378 350° North 446 513 38,000  Level Seattle Center
Fri 06:01:38 PM 41.5631 -121.5681 349° North 446 513 38,000  Level Seattle Center
Fri 06:02:40 PM 41.6856 -121.5944 351° North 447 514 38,000  Level Seattle Center
Fri 06:03:41 PM 41.8058 -121.6242 350° North 445 512 38,000  Level Seattle Center
Fri 06:04:42 PM 41.9281 -121.6472 352° North 448 516 38,000  Level Seattle Center
Fri 06:05:43 PM 42.0714 -121.6833 349° North 443 510 38,000  Level Seattle Center
Fri 06:06:45 PM 42.1922 -121.7069 352° North 446 513 38,000  Level Seattle Center
Fri 06:07:46 PM 42.3103 -121.7397 348° North 441 507 38,000  Level Seattle Center
Fri 06:09:49 PM 42.5528 -121.7950 350° North 440 506 38,000  Level Seattle Center
Fri 06:10:50 PM 42.6736 -121.8228 350° North 441 507 38,000  Level Seattle Center
Fri 06:12:00 PM 42.8012 -121.8537 350° North  Level FlightAware Approximate
Fri 06:12:53 PM 42.9408 -121.8889 350° North 444 511 38,000  Level Seattle Center
Fri 06:13:54 PM 43.0622 -121.9125 352° North 441 507 38,000  Level Seattle Center
Fri 06:14:55 PM 43.1831 -121.9447 349° North 440 506 38,000  Level Seattle Center
Fri 06:15:56 PM 43.3139 -121.9761 350° North 447 514 38,000  Level Seattle Center
Fri 06:16:58 PM 43.4342 -122.0078 349° North 444 511 38,000  Level Seattle Center
Fri 06:17:59 PM 43.5550 -122.0353 351° North 444 511 38,000  Level Seattle Center
Fri 06:19:01 PM 43.6750 -122.0644 350° North 439 505 38,000  Level Seattle Center
Fri 06:20:02 PM 43.7950 -122.0911 351° North 438 504 38,000  Level Seattle Center
Fri 06:21:03 PM 43.9167 -122.1211 350° North 447 514 38,000  Level Seattle Center
Fri 06:22:05 PM 44.0347 -122.1506 350° North 434 499 38,000  Level Seattle Center
Fri 06:23:06 PM 44.1553 -122.1797 350° North 440 506 38,000  Level Seattle Center
Fri 06:24:07 PM 44.2733 -122.2119 349° North 437 503 38,000  Level Seattle Center
Fri 06:25:09 PM 44.4175 -122.2453 351° North 439 505 38,000  Level Seattle Center
Fri 06:26:10 PM 44.5361 -122.2781 349° North 439 505 38,000  Level Seattle Center
Fri 06:27:11 PM 44.6578 -122.3047 351° North 442 509 38,000  Level Seattle Center
Fri 06:28:13 PM 44.7764 -122.3400 348° North 439 505 38,000  Level Seattle Center
Fri 06:29:14 PM 44.8925 -122.3647 351° North 439 505 38,000  Level Seattle Center
Fri 06:30:15 PM 45.0144 -122.4000 348° North 446 513 38,000  Level Seattle Center
Fri 06:31:17 PM 45.1347 -122.4292 350° North 444 511 38,000 -49 Level Seattle Center
Fri 06:32:18 PM 45.2758 -122.4639 350° North 437 503 37,900 -1,180 Descending Seattle Center
Fri 06:33:19 PM 45.3975 -122.4978 349° North 446 513 35,600 -2,311 Descending Seattle Center
Fri 06:34:20 PM 45.5217 -122.5294 350° North 453 521 33,200 -2,293 Descending Seattle Center
Fri 06:35:22 PM 45.6450 -122.5592 350° North 453 521 30,900 -2,146 Descending Seattle Center
Fri 06:36:23 PM 45.7653 -122.5953 348° North 445 512 28,800 -2,164 Descending Seattle Center
Fri 06:37:24 PM 45.8861 -122.6194 352° North 441 507 26,500 -2,195 Descending Seattle Center
Fri 06:38:26 PM 46.0058 -122.6517 349° North 439 505 24,300 -2,439 Descending Seattle Center
Fri 06:39:27 PM 46.1214 -122.6858 348° North 429 494 21,500 -2,902 Descending Seattle Center
Fri 06:40:28 PM 46.2500 -122.7133 352° North 409 471 18,400 -2,754 Descending Seattle Center
Fri 06:41:29 PM 46.3494 -122.7425 349° North 373 429 15,900 -2,683 Descending Seattle Center
Fri 06:42:31 PM 46.4433 -122.7664 350° North 352 405 12,900 -2,439 Descending Seattle Center
Fri 06:43:32 PM 46.5328 -122.7883 350° North 334 384 10,900 -1,426 Descending Seattle Center
Fri 06:44:33 PM 46.6147 -122.8086 350° North 307 353 10,000 -568 Descending Seattle Center
Fri 06:45:07 PM 46.6772 -122.8250 350° North 307 353 10,000  Level Seattle Center
Fri 06:46:08 PM 46.7628 -122.8472 350° North 311 358 10,000 -574 Level Seattle Center
Fri 06:47:02 PM 46.8333 -122.8289 10° North 285 328 8,900 -1,483 Descending Seattle Center
Fri 06:47:37 PM 46.8728 -122.8064 21° North 276 318 7,800 -1,970 Descending Seattle Center
Fri 06:48:09 PM 46.9122 -122.7897 16° North 273 314 6,700 -1,871 Descending Seattle Center
Fri 06:49:10 PM 46.9853 -122.7539 18° North 258 297 4,900 -1,672 Descending Seattle Center
Fri 06:50:11 PM 47.0519 -122.7278 15° North 244 281 3,300 -704 Descending Seattle Center
Fri 06:52:00 PM 47.1918 -122.6415 34° Northeast  Level FlightAware Approximate
Fri 06:52:43 PM 47.1828 -122.6469 34° Northeast 192 221 2,400  Level Seattle Center
Fri 06:54:02 PM 47.2439 -122.6436 North 166 191 1,900 -239 Descending Seattle Center
Fri 06:56:04 PM 47.3192 -122.6158 14° North 155 178 1,600 -289 Descending Seattle Center
Fri 06:56:48 PM 47.3083 -122.5750 111° Southeast 145 167 1,100 -514 Descending Seattle Center
Fri 06:57:49 PM 47.2761 -122.5744 179° South 135 155 700 -393 Descending Seattle Center
Fri 06:59:00 PM 47.2667 -122.5667 180° South  Level FlightAware Approximate
Fri 07:06:00 PM 47.2679 -122.5781 180° South  Level Estimated
Fri 07:07:00 PM 47.2679 -122.5781 180° South  Level Estimated
Fri 07:08:00 PM 47.2679 -122.5781 180° South  Level Estimated

Login

Don't have an account? Register now (free) for customized features, flight alerts, and more!